Time;durP1;ratioP1;P1;durP2;ratioP2;P2;SDS_P1;SDS_P2;PMS_P1;PMS_P2;Temp;Humidity;BMP_temperature;BMP_pressure;BME280_temperature;BME280_humidity;BME280_pressure;Samples;Min_cycle;Max_cycle;Signal;HPM_P1;HPM_P2
2023/09/13 00:01:43;;;;;;;10.48;7.07;;;18.70;99.90;;;;;;5134185;28;20462;-76
2023/09/13 00:04:09;;;;;;;9.45;6.85;;;18.70;99.90;;;;;;5133584;28;20058;-77
2023/09/13 00:06:35;;;;;;;11.80;6.20;;;18.70;99.90;;;;;;5134127;28;20047;-77
2023/09/13 00:09:01;;;;;;;10.75;5.88;;;18.70;99.90;;;;;;5116160;28;20040;-77
2023/09/13 00:11:26;;;;;;;8.60;6.05;;;18.70;99.90;;;;;;5133899;28;20047;-77
2023/09/13 00:13:52;;;;;;;9.93;5.90;;;18.70;99.90;;;;;;5134172;28;20046;-77
2023/09/13 00:16:18;;;;;;;9.57;6.10;;;18.70;99.90;;;;;;5134109;28;20365;-77
2023/09/13 00:18:44;;;;;;;11.63;6.57;;;18.70;99.90;;;;;;5117922;28;20062;-77
2023/09/13 00:21:11;;;;;;;10.13;6.07;;;18.70;99.90;;;;;;5136924;28;20035;-77
2023/09/13 00:23:37;;;;;;;10.43;5.80;;;18.70;99.90;;;;;;5117902;28;20062;-77
2023/09/13 00:26:03;;;;;;;10.93;6.13;;;18.70;99.90;;;;;;5115859;28;20043;-77
2023/09/13 00:28:29;;;;;;;10.13;6.10;;;18.70;99.90;;;;;;5116245;28;20122;-77
2023/09/13 00:30:54;;;;;;;9.40;5.30;;;18.60;99.90;;;;;;5147160;27;20076;-78
2023/09/13 00:33:20;;;;;;;9.70;5.72;;;18.70;99.90;;;;;;5154678;27;20054;-77
2023/09/13 00:35:46;;;;;;;9.90;5.75;;;18.70;99.90;;;;;;5154403;27;20046;-77
2023/09/13 00:38:12;;;;;;;9.02;5.50;;;18.70;99.90;;;;;;5127636;28;20101;-77
2023/09/13 00:40:37;;;;;;;9.68;5.15;;;18.70;99.90;;;;;;5135259;27;20469;-77
2023/09/13 00:43:03;;;;;;;11.07;5.80;;;18.70;99.90;;;;;;5137076;27;20054;-78
2023/09/13 00:45:32;;;;;;;10.27;5.60;;;18.70;99.90;;;;;;5137409;27;20171;-77
2023/09/13 00:47:58;;;;;;;8.88;5.05;;;18.70;99.90;;;;;;5118906;27;20047;-76
2023/09/13 00:50:24;;;;;;;10.05;5.45;;;18.70;99.90;;;;;;5102499;27;20129;-76
2023/09/13 00:52:50;;;;;;;8.57;4.90;;;18.70;99.90;;;;;;5137553;27;20046;-76
2023/09/13 00:55:17;;;;;;;8.63;4.88;;;18.70;99.90;;;;;;5137607;27;20047;-76
2023/09/13 00:57:44;;;;;;;7.72;4.90;;;18.70;99.90;;;;;;5137503;27;20494;-77
2023/09/13 01:00:10;;;;;;;8.30;4.43;;;18.60;99.90;;;;;;5137181;27;20075;-76
2023/09/13 01:02:40;;;;;;;7.05;4.25;;;18.60;99.90;;;;;;5137265;27;20122;-77
2023/09/13 01:05:11;;;;;;;6.70;4.00;;;18.60;99.90;;;;;;5137443;27;20083;-77
2023/09/13 01:07:40;;;;;;;8.52;4.10;;;18.60;99.90;;;;;;5136721;27;20570;-77
2023/09/13 01:10:06;;;;;;;8.23;4.20;;;18.50;99.90;;;;;;5137173;27;20057;-77
2023/09/13 01:12:32;;;;;;;7.82;3.47;;;18.50;99.90;;;;;;5115164;28;20055;-76
2023/09/13 01:14:58;;;;;;;8.85;3.63;;;18.60;99.90;;;;;;5116133;28;20052;-76
2023/09/13 01:17:39;;;;;;;5.47;3.40;;;18.50;99.90;;;;;;5116056;28;20040;-77
2023/09/13 01:20:15;;;;;;;5.60;3.03;;;18.50;99.90;;;;;;5132316;27;20051;-76
2023/09/13 01:22:53;;;;;;;;;;;18.40;99.90;;;;;;5115462;28;20492;-77
2023/09/13 01:25:50;;;;;;;7.35;3.08;;;18.40;99.90;;;;;;5115404;28;20010;-77
2023/09/13 01:28:33;;;;;;;6.50;3.08;;;18.40;99.90;;;;;;5116206;28;20081;-77
2023/09/13 01:31:00;;;;;;;9.20;3.40;;;18.30;99.90;;;;;;5130098;27;20047;-77
2023/09/13 01:33:26;;;;;;;9.32;3.63;;;18.30;99.90;;;;;;5136777;27;20049;-77
2023/09/13 01:35:52;;;;;;;8.73;5.07;;;18.30;99.90;;;;;;5135808;27;20051;-77
2023/09/13 01:38:17;;;;;;;6.57;2.97;;;18.30;99.90;;;;;;5127677;27;20067;-77
2023/09/13 01:40:46;;;;;;;7.78;2.88;;;18.20;99.90;;;;;;5116103;28;20104;-77
2023/09/13 01:43:12;;;;;;;7.05;3.28;;;18.20;99.90;;;;;;5115758;28;20042;-76
2023/09/13 01:45:38;;;;;;;4.68;2.30;;;18.20;99.90;;;;;;5115865;28;20495;-75
2023/09/13 01:48:04;;;;;;;3.60;2.55;;;18.20;99.90;;;;;;5115835;28;20051;-77
2023/09/13 01:50:31;;;;;;;6.70;2.60;;;18.10;99.90;;;;;;5115335;28;20097;-76
2023/09/13 01:52:57;;;;;;;4.72;2.63;;;18.20;99.90;;;;;;5116261;28;20433;-77
2023/09/13 01:55:22;;;;;;;4.60;2.00;;;18.10;99.90;;;;;;5114648;28;20101;-77
2023/09/13 01:57:48;;;;;;;4.20;2.22;;;18.10;99.90;;;;;;5114323;28;20050;-77
2023/09/13 02:00:14;;;;;;;7.20;2.30;;;18.00;99.90;;;;;;5115557;28;20075;-78
2023/09/13 02:02:40;;;;;;;3.92;2.45;;;18.00;99.90;;;;;;5115510;28;20043;-77
2023/09/13 02:05:06;;;;;;;5.95;2.28;;;18.00;99.90;;;;;;5115505;28;20066;-78
2023/09/13 02:07:32;;;;;;;5.20;2.08;;;18.00;99.90;;;;;;5115676;28;20040;-78
2023/09/13 02:09:58;;;;;;;4.18;2.08;;;18.00;99.90;;;;;;5115772;28;20050;-78
2023/09/13 02:12:23;;;;;;;6.72;2.00;;;18.00;99.90;;;;;;5126542;27;20058;-76
2023/09/13 02:14:49;;;;;;;4.85;1.60;;;18.00;99.90;;;;;;5136143;27;20475;-77
2023/09/13 02:17:15;;;;;;;5.47;1.67;;;17.90;99.90;;;;;;5135916;27;20497;-77
2023/09/13 02:19:40;;;;;;;3.97;1.60;;;17.90;99.90;;;;;;5117105;27;20508;-77
2023/09/13 02:22:06;;;;;;;4.88;1.70;;;17.80;99.90;;;;;;5135837;27;20047;-77
2023/09/13 02:24:32;;;;;;;4.60;1.80;;;17.80;99.90;;;;;;5135801;27;20043;-77
2023/09/13 02:26:59;;;;;;;3.88;2.03;;;17.80;99.90;;;;;;5135295;27;20053;-77
2023/09/13 02:29:26;;;;;;;3.20;1.63;;;17.80;99.90;;;;;;5136406;27;20133;-76
2023/09/13 02:31:52;;;;;;;2.67;1.60;;;17.80;99.90;;;;;;5157590;27;20082;-77
2023/09/13 02:34:17;;;;;;;4.00;1.73;;;17.70;99.90;;;;;;5156104;27;20111;-78
2023/09/13 02:36:45;;;;;;;3.85;1.70;;;17.70;99.90;;;;;;5155819;27;20050;-77
2023/09/13 02:39:34;;;;;;;4.05;1.83;;;17.60;99.90;;;;;;5139053;27;20078;-77
2023/09/13 02:42:00;;;;;;;5.22;1.80;;;17.60;99.90;;;;;;5135316;27;20068;-77
2023/09/13 02:44:26;;;;;;;3.33;1.70;;;17.60;99.90;;;;;;5135374;27;20089;-77
2023/09/13 02:46:52;;;;;;;6.45;1.80;;;17.60;99.90;;;;;;5135371;27;20086;-76
2023/09/13 02:49:18;;;;;;;4.00;1.67;;;17.60;99.90;;;;;;5134521;27;20065;-76
2023/09/13 02:51:43;;;;;;;4.28;1.60;;;17.60;99.90;;;;;;5135503;27;20047;-77
2023/09/13 02:54:09;;;;;;;4.38;2.03;;;17.60;99.90;;;;;;5135498;27;20460;-76
2023/09/13 02:56:35;;;;;;;5.82;1.92;;;17.60;99.90;;;;;;5117153;27;20126;-77
2023/09/13 02:59:00;;;;;;;6.78;1.77;;;17.50;99.90;;;;;;5116924;27;20043;-77
2023/09/13 03:01:26;;;;;;;3.55;1.77;;;17.50;99.90;;;;;;5117006;27;20047;-77
2023/09/13 03:03:52;;;;;;;5.45;1.88;;;17.50;99.90;;;;;;5115837;27;20091;-77
2023/09/13 03:06:17;;;;;;;3.92;1.85;;;17.50;99.90;;;;;;5134854;27;20495;-77
2023/09/13 03:08:43;;;;;;;4.35;2.05;;;17.50;99.90;;;;;;5135043;27;20070;-77
2023/09/13 03:11:17;;;;;;;5.70;1.90;;;17.50;99.90;;;;;;5134384;27;20043;-76
2023/09/13 03:13:43;;;;;;;5.97;1.90;;;17.50;99.90;;;;;;5134297;27;20051;-77
2023/09/13 03:16:20;;;;;;;7.07;1.90;;;17.50;99.90;;;;;;5134707;27;20139;-78
2023/09/13 03:18:48;;;;;;;4.10;1.83;;;17.40;99.90;;;;;;5116086;27;20050;-77
2023/09/13 03:21:15;;;;;;;4.30;2.08;;;17.40;99.90;;;;;;5135347;27;20046;-77
2023/09/13 03:23:42;;;;;;;4.63;2.15;;;17.40;99.90;;;;;;5134733;27;20379;-77
2023/09/13 03:26:16;;;;;;;4.70;1.83;;;17.40;99.90;;;;;;5134761;27;20050;-77
2023/09/13 03:28:44;;;;;;;4.97;2.33;;;17.30;99.90;;;;;;5116919;27;20050;-76
2023/09/13 03:31:18;;;;;;;4.55;1.83;;;17.30;99.90;;;;;;5149880;27;20122;-77
2023/09/13 03:33:45;;;;;;;3.13;1.85;;;17.30;99.90;;;;;;5155602;27;20042;-76
2023/09/13 03:36:12;;;;;;;4.90;2.08;;;17.40;99.90;;;;;;5155449;27;20113;-77
2023/09/13 03:38:39;;;;;;;8.05;2.40;;;17.40;99.90;;;;;;5143057;27;20403;-77
2023/09/13 03:41:16;;;;;;;4.40;2.05;;;17.40;99.90;;;;;;5134477;27;20139;-77
2023/09/13 03:43:42;;;;;;;4.80;1.98;;;17.40;99.90;;;;;;5134307;27;20060;-77
2023/09/13 03:46:08;;;;;;;5.53;2.20;;;17.40;99.90;;;;;;5134401;28;20522;-75
2023/09/13 03:48:35;;;;;;;6.78;1.90;;;17.30;99.90;;;;;;5134121;28;20100;-78
2023/09/13 03:51:01;;;;;;;5.38;2.03;;;17.30;99.90;;;;;;5133742;28;20043;-77
2023/09/13 03:53:27;;;;;;;4.30;2.10;;;17.30;99.90;;;;;;5134136;28;20051;-78
2023/09/13 03:55:54;;;;;;;3.95;1.83;;;17.30;99.90;;;;;;5134300;28;20047;-77
2023/09/13 03:58:20;;;;;;;4.50;1.88;;;17.30;99.90;;;;;;5134777;28;20049;-77
2023/09/13 04:00:46;;;;;;;5.03;1.80;;;17.30;99.90;;;;;;5116237;28;20082;-78
2023/09/13 04:03:16;;;;;;;5.82;2.30;;;17.30;99.90;;;;;;5134100;28;20039;-77
2023/09/13 04:05:41;;;;;;;5.28;1.85;;;17.30;99.90;;;;;;5116101;28;20039;-76
2023/09/13 04:08:07;;;;;;;5.18;1.90;;;17.30;99.90;;;;;;5134234;28;20054;-77
2023/09/13 04:10:33;;;;;;;3.55;1.88;;;17.30;99.90;;;;;;5134319;28;20496;-77
2023/09/13 04:12:58;;;;;;;3.67;1.70;;;17.30;99.90;;;;;;5133714;28;20054;-77
2023/09/13 04:15:24;;;;;;;5.22;2.22;;;17.20;99.90;;;;;;5119180;27;20080;-76
2023/09/13 04:17:50;;;;;;;5.80;2.13;;;17.20;99.90;;;;;;5119638;27;20051;-77
2023/09/13 04:20:16;;;;;;;4.22;1.90;;;17.20;99.90;;;;;;5138165;27;20046;-76
2023/09/13 04:22:41;;;;;;;4.63;2.00;;;17.20;99.90;;;;;;5137958;27;20046;-77
2023/09/13 04:25:08;;;;;;;4.78;1.60;;;17.20;99.90;;;;;;5137981;27;20047;-77
2023/09/13 04:27:34;;;;;;;4.18;1.80;;;17.20;99.90;;;;;;5137761;27;20042;-76
2023/09/13 04:29:59;;;;;;;7.07;1.83;;;17.20;99.90;;;;;;5124391;27;20051;-76
2023/09/13 04:32:26;;;;;;;3.40;1.80;;;17.20;99.90;;;;;;5158661;27;20039;-77
2023/09/13 04:34:52;;;;;;;7.13;1.88;;;17.10;99.90;;;;;;5158284;27;20483;-77
2023/09/13 04:37:18;;;;;;;5.28;1.80;;;17.20;99.90;;;;;;5157617;27;20401;-77
2023/09/13 04:39:44;;;;;;;3.25;2.13;;;17.10;99.90;;;;;;5137814;27;20125;-77
2023/09/13 04:42:10;;;;;;;5.68;1.98;;;17.20;99.90;;;;;;5119334;27;20075;-76
2023/09/13 04:44:36;;;;;;;4.53;1.55;;;17.20;99.90;;;;;;5138192;27;20047;-76
2023/09/13 04:47:02;;;;;;;4.57;1.70;;;17.10;99.90;;;;;;5137787;27;20055;-77
2023/09/13 04:49:28;;;;;;;4.00;1.98;;;17.10;99.90;;;;;;5137167;27;20093;-78
2023/09/13 04:51:54;;;;;;;5.20;1.92;;;17.10;99.90;;;;;;5137805;27;20080;-79
2023/09/13 04:54:23;;;;;;;4.40;1.77;;;17.10;99.90;;;;;;5137564;27;20050;-76
2023/09/13 04:56:51;;;;;;;7.53;2.33;;;17.10;99.90;;;;;;5137673;27;20047;-78
2023/09/13 04:59:18;;;;;;;4.55;2.20;;;17.00;99.90;;;;;;5137597;27;20403;-78
2023/09/13 05:01:44;;;;;;;4.65;2.13;;;17.00;99.90;;;;;;5137445;27;20070;-77
2023/09/13 05:04:10;;;;;;;5.28;2.38;;;17.00;99.90;;;;;;5137245;27;20035;-77
2023/09/13 05:06:35;;;;;;;4.68;2.20;;;17.00;99.90;;;;;;5136939;27;20035;-77
2023/09/13 05:09:01;;;;;;;6.63;2.58;;;17.00;99.90;;;;;;5137028;27;20039;-78
2023/09/13 05:11:27;;;;;;;4.93;2.05;;;17.00;99.90;;;;;;5137068;27;20046;-77
2023/09/13 05:14:09;;;;;;;5.20;1.92;;;17.10;99.90;;;;;;5118517;27;20180;-77
2023/09/13 05:16:35;;;;;;;7.40;2.03;;;17.00;99.90;;;;;;5137241;27;20121;-77
2023/09/13 05:19:01;;;;;;;4.93;2.03;;;17.00;99.90;;;;;;5138079;27;20094;-77
2023/09/13 05:21:26;;;;;;;4.35;1.98;;;17.00;99.90;;;;;;5137805;27;20047;-76
2023/09/13 05:23:52;;;;;;;4.63;2.03;;;17.00;99.90;;;;;;5137145;27;20039;-77
2023/09/13 05:26:18;;;;;;;3.90;1.77;;;17.00;99.90;;;;;;5136085;27;20039;-77
2023/09/13 05:28:43;;;;;;;5.10;1.92;;;17.00;99.90;;;;;;5136191;27;20134;-77
2023/09/13 05:31:09;;;;;;;3.60;1.67;;;16.90;99.90;;;;;;5152112;27;20047;-76
2023/09/13 05:33:35;;;;;;;4.30;1.73;;;16.90;99.90;;;;;;5157199;27;20038;-76
2023/09/13 05:36:01;;;;;;;7.03;1.95;;;16.80;99.90;;;;;;5157353;27;20179;-77
2023/09/13 05:38:27;;;;;;;3.15;1.45;;;16.80;99.90;;;;;;5147593;27;20423;-76
2023/09/13 05:40:52;;;;;;;6.18;1.90;;;16.80;99.90;;;;;;5120324;27;20057;-77
2023/09/13 05:43:18;;;;;;;3.90;1.50;;;16.70;99.90;;;;;;5120715;27;20160;-77
2023/09/13 05:45:44;;;;;;;5.65;1.65;;;16.80;99.90;;;;;;5136301;27;20046;-78
2023/09/13 05:48:10;;;;;;;5.15;1.35;;;16.70;99.90;;;;;;5135918;27;20383;-78
2023/09/13 05:50:35;;;;;;;6.22;1.27;;;16.70;99.90;;;;;;5136077;27;20200;-77
2023/09/13 05:53:02;;;;;;;5.68;1.25;;;16.70;99.90;;;;;;5118156;27;20039;-77
2023/09/13 05:55:27;;;;;;;4.10;1.33;;;16.60;99.90;;;;;;5136345;27;20047;-78
2023/09/13 05:57:53;;;;;;;5.47;1.27;;;16.50;99.90;;;;;;5136311;27;20050;-78
2023/09/13 06:00:19;;;;;;;4.00;1.33;;;16.50;99.90;;;;;;5135957;27;20039;-77
2023/09/13 06:02:45;;;;;;;3.00;1.10;;;16.40;99.90;;;;;;5117845;27;20046;-77
2023/09/13 06:05:10;;;;;;;5.03;1.15;;;16.40;99.90;;;;;;5136297;27;20043;-77
2023/09/13 06:07:37;;;;;;;3.75;1.10;;;16.30;99.90;;;;;;5135994;27;20055;-78
2023/09/13 06:10:04;;;;;;;2.88;1.10;;;16.20;99.90;;;;;;5118046;27;20047;-77
2023/09/13 06:12:33;;;;;;;4.60;1.30;;;16.10;99.90;;;;;;5135682;27;20047;-75
2023/09/13 06:14:59;;;;;;;4.25;1.15;;;15.90;99.90;;;;;;5135911;27;20047;-75
2023/09/13 06:17:25;;;;;;;5.15;1.33;;;15.80;99.90;;;;;;5117841;27;20043;-77
2023/09/13 06:19:51;;;;;;;6.07;1.30;;;15.60;99.90;;;;;;5135443;27;20047;-76
2023/09/13 06:22:17;;;;;;;4.13;1.30;;;15.50;99.90;;;;;;5134978;27;20092;-78
2023/09/13 06:24:44;;;;;;;3.15;1.25;;;15.40;99.90;;;;;;5135365;27;20062;-77
2023/09/13 06:27:10;;;;;;;4.20;1.05;;;15.20;99.90;;;;;;5118262;27;20081;-76
2023/09/13 06:29:35;;;;;;;3.60;1.30;;;15.10;99.90;;;;;;5119266;27;20039;-77
2023/09/13 06:32:02;;;;;;;5.32;1.75;;;15.10;99.90;;;;;;5156247;27;20057;-78
2023/09/13 06:34:28;;;;;;;5.25;1.58;;;15.10;99.90;;;;;;5156274;27;20078;-78
2023/09/13 06:36:55;;;;;;;5.13;1.02;;;15.00;99.90;;;;;;5156223;27;20057;-78
2023/09/13 06:39:21;;;;;;;3.72;1.35;;;15.00;99.90;;;;;;5137644;27;20503;-77
2023/09/13 06:41:47;;;;;;;5.20;1.20;;;14.90;99.90;;;;;;5135437;27;20051;-77
2023/09/13 06:44:14;;;;;;;6.07;1.33;;;14.90;99.90;;;;;;5116838;27;20543;-77
2023/09/13 06:46:41;;;;;;;4.90;1.70;;;14.90;99.90;;;;;;5117152;27;20043;-78
2023/09/13 06:49:07;;;;;;;4.78;1.17;;;14.90;99.90;;;;;;5116574;27;20408;-78
2023/09/13 06:51:33;;;;;;;2.75;1.17;;;14.80;99.90;;;;;;5117136;27;20049;-75
2023/09/13 06:53:59;;;;;;;3.70;1.13;;;14.80;99.90;;;;;;5135478;27;20043;-77
2023/09/13 06:56:25;;;;;;;3.80;1.17;;;14.80;99.90;;;;;;5134637;27;20047;-78
2023/09/13 06:58:52;;;;;;;3.10;1.35;;;14.70;99.90;;;;;;5134883;27;20046;-77
2023/09/13 07:01:18;;;;;;;2.95;1.20;;;14.70;99.90;;;;;;5134243;27;20531;-76
2023/09/13 07:03:44;;;;;;;3.65;1.40;;;14.70;99.90;;;;;;5134984;27;20176;-76
2023/09/13 07:06:11;;;;;;;3.28;1.20;;;14.60;99.90;;;;;;5134649;27;20515;-77
2023/09/13 07:08:37;;;;;;;3.88;1.38;;;14.70;99.90;;;;;;5134985;27;20406;-76
2023/09/13 07:11:02;;;;;;;2.75;1.15;;;14.70;99.90;;;;;;5134818;27;20164;-77
2023/09/13 07:13:28;;;;;;;3.75;1.20;;;14.60;99.90;;;;;;5135347;27;20414;-76
2023/09/13 07:15:54;;;;;;;3.22;1.20;;;14.70;99.90;;;;;;5116377;27;20391;-77
2023/09/13 07:18:20;;;;;;;4.05;1.15;;;14.60;99.90;;;;;;5134379;27;20047;-77
2023/09/13 07:20:45;;;;;;;3.05;1.30;;;14.60;99.90;;;;;;5134789;27;20082;-76
2023/09/13 07:23:11;;;;;;;3.58;1.17;;;14.60;99.90;;;;;;5134710;27;20475;-77
2023/09/13 07:25:37;;;;;;;3.05;1.30;;;14.60;99.90;;;;;;5135305;27;20390;-75
2023/09/13 07:28:03;;;;;;;9.30;1.70;;;14.60;99.90;;;;;;5134919;27;20046;-77
2023/09/13 07:30:28;;;;;;;4.13;1.30;;;14.60;99.90;;;;;;5143863;27;20050;-75
2023/09/13 07:32:54;;;;;;;4.88;1.30;;;14.60;99.90;;;;;;5119616;27;20046;-75
2023/09/13 07:35:20;;;;;;;4.10;1.52;;;14.60;99.90;;;;;;5155197;27;20125;-76
2023/09/13 07:37:47;;;;;;;3.13;1.30;;;14.60;99.90;;;;;;5136272;27;20054;-75
2023/09/13 07:40:13;;;;;;;3.90;1.30;;;14.60;99.90;;;;;;5154940;27;20039;-75
2023/09/13 07:42:39;;;;;;;3.55;1.42;;;14.60;99.90;;;;;;5119856;27;20443;-76
2023/09/13 07:45:07;;;;;;;3.33;1.42;;;14.70;99.90;;;;;;5155085;27;20554;-75
2023/09/13 07:47:32;;;;;;;4.75;1.58;;;14.70;99.90;;;;;;5119808;27;20055;-75
2023/09/13 07:49:59;;;;;;;4.57;1.50;;;14.70;99.90;;;;;;5159574;27;20050;-75
2023/09/13 07:52:26;;;;;;;2.95;1.40;;;14.70;99.90;;;;;;5162042;27;20407;-77
2023/09/13 07:54:52;;;;;;;3.33;1.42;;;14.70;99.90;;;;;;5161944;27;20046;-74
2023/09/13 07:57:18;;;;;;;4.63;1.45;;;14.70;99.90;;;;;;5161818;27;20051;-74
2023/09/13 07:59:43;;;;;;;3.40;1.38;;;14.70;99.90;;;;;;5161786;27;20038;-76
2023/09/13 08:02:10;;;;;;;3.88;1.55;;;14.70;99.90;;;;;;5126126;27;20057;-75
2023/09/13 08:04:35;;;;;;;3.85;1.50;;;14.70;99.90;;;;;;5161957;27;20076;-74
2023/09/13 08:07:02;;;;;;;3.38;1.30;;;14.70;99.90;;;;;;5143414;27;20138;-75
2023/09/13 08:09:28;;;;;;;3.67;1.58;;;14.70;99.90;;;;;;5161878;27;20046;-74
2023/09/13 08:11:54;;;;;;;5.30;1.85;;;14.70;99.90;;;;;;5161723;27;20038;-75
2023/09/13 08:14:20;;;;;;;4.20;1.77;;;14.70;99.90;;;;;;5161784;27;20078;-74
2023/09/13 08:16:46;;;;;;;6.32;2.03;;;14.80;99.90;;;;;;5161162;27;20081;-74
2023/09/13 08:19:12;;;;;;;4.43;1.90;;;14.80;99.90;;;;;;5161534;27;20082;-76
2023/09/13 08:21:38;;;;;;;4.53;1.63;;;14.90;99.90;;;;;;5161895;27;20391;-76
2023/09/13 08:24:04;;;;;;;4.13;1.80;;;15.00;99.90;;;;;;5161596;27;20035;-76
2023/09/13 08:26:30;;;;;;;4.90;1.80;;;15.10;99.90;;;;;;5143346;27;20406;-76
2023/09/13 08:28:57;;;;;;;4.00;1.52;;;15.20;99.90;;;;;;5161485;27;20042;-75
2023/09/13 08:31:25;;;;;;;7.35;1.85;;;15.20;99.90;;;;;;5142939;27;20442;-74
2023/09/13 08:33:52;;;;;;;4.68;1.90;;;15.20;99.90;;;;;;5161476;27;20513;-76
2023/09/13 08:36:18;;;;;;;3.72;1.63;;;15.30;99.90;;;;;;5161654;27;20421;-76
2023/09/13 08:38:44;;;;;;;3.78;1.63;;;15.30;99.90;;;;;;5161325;27;20046;-75
2023/09/13 08:41:15;;;;;;;4.43;2.10;;;15.30;99.90;;;;;;5161623;27;20512;-75
2023/09/13 08:43:42;;;;;;;3.72;1.58;;;15.30;99.90;;;;;;5161035;27;20524;-76
2023/09/13 08:46:09;;;;;;;5.88;1.92;;;15.30;99.90;;;;;;5161562;27;20053;-75
2023/09/13 08:48:37;;;;;;;5.28;1.75;;;15.30;99.90;;;;;;5142772;27;20047;-75
2023/09/13 08:51:04;;;;;;;3.67;1.73;;;15.30;99.90;;;;;;5161438;27;20057;-77
2023/09/13 08:53:31;;;;;;;4.20;1.75;;;15.30;99.90;;;;;;5160920;27;20042;-77
2023/09/13 08:55:59;;;;;;;3.20;1.55;;;15.40;99.90;;;;;;5161000;27;20437;-77
2023/09/13 08:58:26;;;;;;;6.15;2.40;;;15.40;99.90;;;;;;5161887;27;20043;-78
2023/09/13 09:00:53;;;;;;;4.63;1.65;;;15.40;99.90;;;;;;5140169;27;20448;-78
2023/09/13 09:03:23;;;;;;;3.58;1.73;;;15.40;99.90;;;;;;5157804;27;20099;-76
2023/09/13 09:05:50;;;;;;;3.72;1.60;;;15.50;99.90;;;;;;5158127;27;20054;-76
2023/09/13 09:08:17;;;;;;;3.50;1.70;;;15.50;99.90;;;;;;5157894;27;20129;-77
2023/09/13 09:10:43;;;;;;;3.45;1.80;;;15.60;99.90;;;;;;5158226;27;20126;-77
2023/09/13 09:13:10;;;;;;;4.53;1.90;;;15.80;99.90;;;;;;5157746;27;20054;-77
2023/09/13 09:15:39;;;;;;;3.80;1.60;;;15.90;99.90;;;;;;5157703;27;20491;-78
2023/09/13 09:18:09;;;;;;;4.18;1.70;;;16.00;99.90;;;;;;5157417;27;20391;-76
2023/09/13 09:20:38;;;;;;;2.80;1.52;;;16.00;99.90;;;;;;5157755;27;20078;-77
2023/09/13 09:23:06;;;;;;;4.38;1.65;;;16.10;99.90;;;;;;5157756;27;20097;-77
2023/09/13 09:25:32;;;;;;;4.03;1.70;;;16.30;99.90;;;;;;5157725;27;20050;-77
2023/09/13 09:27:58;;;;;;;3.40;1.88;;;16.50;99.90;;;;;;5139258;27;20047;-75
2023/09/13 09:30:34;;;;;;;5.25;1.70;;;16.80;99.90;;;;;;5148530;27;20070;-78
2023/09/13 09:33:00;;;;;;;;;;;17.10;99.90;;;;;;5118362;27;20047;-76
2023/09/13 09:35:26;;;;;;;;;;;17.40;99.90;;;;;;5119221;27;20250;-76
2023/09/13 09:37:52;;;;;;;5.13;1.73;;;17.60;99.90;;;;;;5142141;27;19979;-76
2023/09/13 09:40:17;;;;;;;4.75;1.60;;;17.90;99.90;;;;;;5157393;27;20053;-77
2023/09/13 09:42:43;;;;;;;4.72;1.77;;;18.20;99.90;;;;;;5157291;27;20099;-76
2023/09/13 09:45:09;;;;;;;4.50;1.73;;;18.30;99.90;;;;;;5157572;27;20070;-77
2023/09/13 09:47:39;;;;;;;5.82;1.80;;;18.40;99.90;;;;;;5138817;27;20073;-77
2023/09/13 09:50:09;;;;;;;4.43;1.60;;;18.40;99.90;;;;;;5156738;27;20167;-76
2023/09/13 09:52:35;;;;;;;3.85;1.40;;;18.20;99.90;;;;;;5138948;27;20554;-76
2023/09/13 09:55:03;;;;;;;5.70;1.60;;;18.10;99.90;;;;;;5157005;27;20129;-76
2023/09/13 09:57:29;;;;;;;3.90;1.45;;;17.90;99.90;;;;;;5157078;27;20050;-77
2023/09/13 09:59:58;;;;;;;5.57;1.98;;;17.80;99.90;;;;;;5157086;27;20043;-76
2023/09/13 10:02:27;;;;;;;3.40;1.38;;;17.70;99.90;;;;;;5156737;27;20045;-76
2023/09/13 10:04:53;;;;;;;3.30;1.17;;;17.60;99.90;;;;;;5138474;27;20444;-76
2023/09/13 10:07:19;;;;;;;3.75;1.30;;;17.50;99.90;;;;;;5156658;27;20035;-74
2023/09/13 10:09:47;;;;;;;4.70;1.45;;;17.60;99.90;;;;;;5137715;27;20050;-75
2023/09/13 10:12:14;;;;;;;3.97;1.23;;;18.00;99.90;;;;;;5155909;27;20050;-77
2023/09/13 10:14:44;;;;;;;5.95;1.48;;;18.30;99.90;;;;;;5156975;27;20099;-76
2023/09/13 10:17:10;;;;;;;3.67;1.23;;;18.60;99.90;;;;;;5156528;27;20042;-76
2023/09/13 10:19:36;;;;;;;3.38;1.40;;;19.00;99.90;;;;;;5156291;27;20099;-75
2023/09/13 10:22:02;;;;;;;4.38;1.48;;;19.30;99.90;;;;;;5156732;27;20074;-76
2023/09/13 10:24:38;;;;;;;5.10;1.55;;;19.10;99.90;;;;;;5156339;27;20043;-76
2023/09/13 10:27:09;;;;;;;3.77;1.70;;;18.80;99.90;;;;;;5156920;27;20047;-77
2023/09/13 10:29:47;;;;;;;3.67;1.48;;;18.60;99.90;;;;;;5136158;27;20122;-75
2023/09/13 10:32:16;;;;;;;4.40;1.52;;;18.40;99.90;;;;;;5135618;27;20130;-76
2023/09/13 10:34:58;;;;;;;5.45;1.67;;;18.60;99.90;;;;;;5135726;27;20055;-76
2023/09/13 10:37:47;;;;;;;5.18;1.52;;;18.90;99.90;;;;;;5135483;27;20039;-76
2023/09/13 10:40:20;;;;;;;3.95;1.27;;;19.20;99.90;;;;;;5135661;27;20051;-77
2023/09/13 10:42:46;;;;;;;4.95;1.90;;;19.30;99.90;;;;;;5135508;27;20126;-76
2023/09/13 10:45:17;;;;;;;6.03;1.95;;;19.30;99.90;;;;;;5117049;27;20069;-77
2023/09/13 10:47:43;;;;;;;4.47;1.60;;;19.20;99.90;;;;;;5134568;27;20492;-77
2023/09/13 10:50:09;;;;;;;1.95;1.05;;;19.10;99.90;;;;;;5116320;27;20395;-76
2023/09/13 10:52:35;;;;;;;3.22;1.27;;;18.80;99.90;;;;;;5135247;27;20047;-77
2023/09/13 10:55:06;;;;;;;3.22;1.38;;;18.50;99.90;;;;;;5135333;27;20039;-75
2023/09/13 10:57:33;;;;;;;5.65;1.45;;;18.20;99.90;;;;;;5136820;27;20043;-76
2023/09/13 10:59:59;;;;;;;2.55;1.13;;;17.90;99.90;;;;;;5137554;27;20047;-75
2023/09/13 11:02:26;;;;;;;4.60;1.40;;;17.50;99.90;;;;;;5136853;27;20042;-76
2023/09/13 11:04:52;;;;;;;3.15;1.20;;;17.20;99.90;;;;;;5134874;27;20103;-75
2023/09/13 11:07:18;;;;;;;4.28;1.45;;;17.00;99.90;;;;;;5116534;27;20396;-76
2023/09/13 11:09:45;;;;;;;4.93;1.40;;;16.80;99.90;;;;;;5116553;27;20051;-76
2023/09/13 11:12:14;;;;;;;2.45;1.30;;;16.70;99.90;;;;;;5135308;27;20430;-75
2023/09/13 11:14:50;;;;;;;2.88;1.27;;;16.70;99.90;;;;;;5134949;27;20051;-76
2023/09/13 11:17:38;;;;;;;3.20;1.20;;;16.70;99.90;;;;;;5134679;27;20052;-76
2023/09/13 11:20:20;;;;;;;4.13;1.60;;;16.80;99.90;;;;;;5134611;27;20129;-76
2023/09/13 11:23:05;;;;;;;4.03;1.35;;;16.80;99.90;;;;;;5116788;27;20103;-77
2023/09/13 11:25:53;;;;;;;3.75;1.60;;;16.90;99.90;;;;;;5116546;27;20047;-76
2023/09/13 11:28:31;;;;;;;7.72;1.55;;;17.00;99.90;;;;;;5134361;27;20407;-76
2023/09/13 11:30:59;;;;;;;4.63;1.40;;;17.10;99.90;;;;;;5148335;27;20050;-76
2023/09/13 11:33:29;;;;;;;5.45;1.40;;;17.20;99.90;;;;;;5155414;27;20084;-76
2023/09/13 11:35:59;;;;;;;3.67;1.63;;;17.30;99.90;;;;;;5155491;27;20050;-75
2023/09/13 11:38:25;;;;;;;4.60;1.50;;;17.40;99.90;;;;;;5144875;27;20050;-77
2023/09/13 11:40:56;;;;;;;5.07;1.38;;;17.50;99.90;;;;;;5116322;27;20152;-75
2023/09/13 11:43:26;;;;;;;5.80;1.60;;;17.60;99.90;;;;;;5134261;27;20043;-76
2023/09/13 11:45:56;;;;;;;2.65;1.25;;;17.70;99.90;;;;;;5134606;27;20043;-77
2023/09/13 11:48:28;;;;;;;4.47;1.52;;;17.80;99.90;;;;;;5115506;28;20450;-75
2023/09/13 11:50:56;;;;;;;5.03;1.65;;;17.80;99.90;;;;;;5134264;28;20043;-76
2023/09/13 11:53:27;;;;;;;4.38;1.63;;;17.80;99.90;;;;;;5134391;28;20047;-78
2023/09/13 11:55:56;;;;;;;3.88;1.20;;;17.80;99.90;;;;;;5134336;28;20139;-75
2023/09/13 11:58:36;;;;;;;5.38;1.50;;;17.90;99.90;;;;;;5116668;28;20043;-76
2023/09/13 12:01:07;;;;;;;2.50;1.20;;;18.10;99.90;;;;;;5134143;28;20136;-76
2023/09/13 12:03:39;;;;;;;4.40;1.27;;;18.30;99.90;;;;;;5098518;28;20047;-76
2023/09/13 12:06:06;;;;;;;4.25;1.40;;;18.50;99.90;;;;;;5133992;28;20134;-76
2023/09/13 12:08:34;;;;;;;3.13;1.27;;;18.70;99.90;;;;;;5116112;28;20055;-76
2023/09/13 12:11:10;;;;;;;4.43;1.23;;;18.90;99.90;;;;;;5116196;28;20146;-75
2023/09/13 12:13:47;;;;;;;2.67;1.08;;;19.10;99.90;;;;;;5134551;28;20568;-76
2023/09/13 12:16:14;;;;;;;3.13;1.30;;;19.20;99.90;;;;;;5115882;28;20099;-75
2023/09/13 12:18:41;;;;;;;2.20;1.08;;;19.20;99.90;;;;;;5133331;28;20607;-75
2023/09/13 12:21:08;;;;;;;3.83;1.20;;;19.30;99.90;;;;;;5133967;28;20043;-75
2023/09/13 12:23:40;;;;;;;5.80;1.52;;;19.40;99.90;;;;;;5133890;28;20126;-76
2023/09/13 12:26:16;;;;;;;3.05;1.50;;;19.20;99.90;;;;;;5134219;28;20040;-76
2023/09/13 12:28:42;;;;;;;3.30;1.20;;;19.10;99.90;;;;;;5134195;28;20399;-76
2023/09/13 12:31:13;;;;;;;3.17;1.33;;;18.90;99.90;;;;;;5148759;27;20043;-75
2023/09/13 12:33:53;;;;;;;5.55;1.40;;;18.70;99.90;;;;;;5154741;27;20043;-76
2023/09/13 12:36:20;;;;;;;4.03;1.73;;;18.60;99.90;;;;;;5157620;27;20042;-75
2023/09/13 12:38:48;;;;;;;3.42;1.20;;;18.50;99.90;;;;;;5145241;27;20099;-76
2023/09/13 12:41:19;;;;;;;4.00;1.60;;;18.50;99.90;;;;;;5137199;27;20054;-76
2023/09/13 12:43:49;;;;;;;4.15;1.20;;;18.60;99.90;;;;;;5137535;27;20046;-75
2023/09/13 12:46:17;;;;;;;3.90;1.83;;;18.60;99.90;;;;;;5137458;27;20590;-75
2023/09/13 12:48:45;;;;;;;3.60;1.30;;;18.60;99.90;;;;;;5137318;27;20152;-75
2023/09/13 12:51:17;;;;;;;3.78;1.48;;;18.50;99.90;;;;;;5137838;27;20089;-76